Time;durP1;ratioP1;P1;durP2;ratioP2;P2;SDS_P1;SDS_P2;PMS_P1;PMS_P2;Temp;Humidity;BMP_temperature;BMP_pressure;BME280_temperature;BME280_humidity;BME280_pressure;Samples;Min_cycle;Max_cycle;Signal;HPM_P1;HPM_P2
2021/08/26 00:00:44;;;;;;;;;;;;;;;20.58;59.26;98962.78;5073399;28;19924;-77
2021/08/26 00:05:54;;;;;;;;;;;;;;;20.48;59.90;98956.81;5073735;28;20337;-76
2021/08/26 00:08:20;;;;;;;;;;;;;;;20.44;60.06;98955.53;5039091;28;19924;-76
2021/08/26 00:10:46;;;;;;;;;;;;;;;20.36;60.40;98956.50;5038692;28;19929;-76
2021/08/26 00:13:12;;;;;;;;;;;;;;;20.23;61.71;98959.06;5071934;28;20011;-78
2021/08/26 00:15:47;;;;;;;;;;;;;;;20.30;61.18;98959.97;5055634;28;19931;-78
2021/08/26 00:18:16;;;;;;;;;;;;;;;20.16;61.74;98969.06;5072571;28;19924;-77
2021/08/26 00:20:44;;;;;;;;;;;;;;;20.15;61.97;98961.94;5022644;28;19930;-76
2021/08/26 00:23:09;;;;;;;;;;;;;;;20.13;61.64;98966.72;5055796;28;19928;-78
2021/08/26 00:25:37;;;;;;;;;;;;;;;20.14;61.70;98961.09;5072059;28;20337;-76
2021/08/26 00:28:03;;;;;;;;;;;;;;;20.10;62.02;98981.50;5055470;28;19925;-77
2021/08/26 00:30:28;;;;;;;;;;;;;;;20.03;62.34;98961.59;5073793;28;19964;-76
2021/08/26 00:32:54;;;;;;;;;;;;;;;20.08;61.88;98967.31;5077110;28;19928;-78
2021/08/26 00:35:20;;;;;;;;;;;;;;;20.14;62.34;98979.25;5081933;28;19924;-77
2021/08/26 00:37:46;;;;;;;;;;;;;;;20.09;62.19;98968.97;5078897;28;20364;-78
2021/08/26 00:40:12;;;;;;;;;;;;;;;19.97;62.70;98973.25;5097059;28;19924;-79
2021/08/26 00:42:38;;;;;;;;;;;;;;;20.00;62.99;98966.56;5062939;28;20003;-78
2021/08/26 00:45:04;;;;;;;;;;;;;;;19.90;63.78;98991.31;5062314;28;20428;-77
2021/08/26 00:47:30;;;;;;;;;;;;;;;19.78;64.25;98976.53;5079060;28;19963;-78
2021/08/26 00:49:56;;;;;;;;;;;;;;;19.80;63.68;98979.91;5062214;28;19931;-77
2021/08/26 00:52:22;;;;;;;;;;;;;;;19.75;63.85;98987.81;5079163;28;19924;-74
2021/08/26 00:54:48;;;;;;;;;;;;;;;19.77;63.66;99002.00;5062175;28;19923;-73
2021/08/26 00:57:13;;;;;;;;;;;;;;;19.68;64.05;98995.00;5078486;28;19977;-75
2021/08/26 00:59:39;;;;;;;;;;;;;;;19.67;64.13;98990.59;5061470;28;19928;-73
2021/08/26 01:02:07;;;;;;;;;;;;;;;19.73;64.17;99000.69;5045332;28;19962;-74
2021/08/26 01:04:35;;;;;;;;;;;;;;;19.66;64.64;99000.59;5096323;28;19923;-74
2021/08/26 01:07:04;;;;;;;;;;;;;;;19.69;64.32;98996.69;5078324;28;20041;-73
2021/08/26 01:09:37;;;;;;;;;;;;;;;19.65;64.62;99007.91;5078212;28;19928;-74
2021/08/26 01:12:03;;;;;;;;;;;;;;;19.65;64.26;99015.19;5045020;28;19924;-74
2021/08/26 01:14:29;;;;;;;;;;;;;;;19.61;64.55;99016.56;5078113;28;19928;-74
2021/08/26 01:16:55;;;;;;;;;;;;;;;19.63;64.38;99011.81;5061346;28;20306;-74
2021/08/26 01:19:20;;;;;;;;;;;;;;;19.70;64.36;99028.19;5044730;28;20449;-74
2021/08/26 01:21:46;;;;;;;;;;;;;;;19.64;64.19;99018.94;5096106;28;20383;-73
2021/08/26 01:24:12;;;;;;;;;;;;;;;19.70;64.24;99022.75;5078265;28;19924;-73
2021/08/26 01:26:51;;;;;;;;;;;;;;;19.62;64.99;99032.69;5061518;28;19924;-74
2021/08/26 01:29:17;;;;;;;;;;;;;;;19.53;65.22;99022.09;5061622;28;19924;-74
2021/08/26 01:31:43;;;;;;;;;;;;;;;19.45;65.41;99030.34;5061139;28;19924;-74
2021/08/26 01:34:09;;;;;;;;;;;;;;;19.50;65.63;99039.56;5061232;28;20387;-73
2021/08/26 01:36:34;;;;;;;;;;;;;;;19.53;65.16;99043.78;5094402;28;19969;-75
2021/08/26 01:39:04;;;;;;;;;;;;;;;19.46;65.26;99048.28;5095694;28;20010;-74
2021/08/26 01:41:39;;;;;;;;;;;;;;;19.48;65.12;99047.03;5060359;28;20422;-74
2021/08/26 01:44:05;;;;;;;;;;;;;;;19.54;65.01;99057.16;5077604;28;19924;-74
2021/08/26 01:46:31;;;;;;;;;;;;;;;19.45;65.62;99062.88;5060850;28;19924;-75
2021/08/26 01:48:56;;;;;;;;;;;;;;;19.44;65.35;99067.44;5077412;28;19949;-74
2021/08/26 01:51:22;;;;;;;;;;;;;;;19.40;65.43;99072.38;5077698;28;19977;-74
2021/08/26 01:53:50;;;;;;;;;;;;;;;19.46;65.38;99069.97;5077412;28;19924;-74
2021/08/26 01:56:16;;;;;;;;;;;;;;;19.36;66.08;99059.38;5061250;28;19924;-73
2021/08/26 01:58:42;;;;;;;;;;;;;;;19.39;65.69;99061.72;5060697;28;19931;-74
2021/08/26 02:01:07;;;;;;;;;;;;;;;19.28;66.35;99063.03;5078212;28;20006;-75
2021/08/26 02:03:33;;;;;;;;;;;;;;;19.47;65.74;99069.78;5043798;28;19924;-75
2021/08/26 02:05:59;;;;;;;;;;;;;;;19.49;65.47;99075.03;5076593;28;20071;-75
2021/08/26 02:08:32;;;;;;;;;;;;;;;19.54;65.40;99078.84;5082455;28;19931;-74
2021/08/26 02:10:58;;;;;;;;;;;;;;;19.58;65.27;99087.44;5097056;28;19924;-74
2021/08/26 02:13:23;;;;;;;;;;;;;;;19.60;64.86;99091.66;5080026;28;19924;-74
2021/08/26 02:15:49;;;;;;;;;;;;;;;19.68;64.74;99089.91;5080902;28;19932;-74
2021/08/26 02:18:15;;;;;;;;;;;;;;;19.73;64.50;99092.91;5094505;28;19950;-74
2021/08/26 02:20:41;;;;;;;;;;;;;;;19.78;64.34;99087.75;5059956;28;19928;-74
2021/08/26 02:23:06;;;;;;;;;;;;;;;19.80;64.02;99083.81;5073155;28;20062;-74
2021/08/26 02:25:32;;;;;;;;;;;;;;;19.66;64.87;99092.81;5062845;28;19924;-74
2021/08/26 02:27:58;;;;;;;;;;;;;;;19.63;64.41;99088.63;5062375;28;19959;-74
2021/08/26 02:30:24;;;;;;;;;;;;;;;19.64;64.54;99086.75;5060665;28;19924;-77
2021/08/26 02:32:50;;;;;;;;;;;;;;;19.72;64.37;99096.66;5046032;28;19946;-78
2021/08/26 02:35:16;;;;;;;;;;;;;;;19.74;64.42;99084.56;5062680;28;19923;-78
2021/08/26 02:37:41;;;;;;;;;;;;;;;19.75;64.28;99088.16;5063097;28;20030;-77
2021/08/26 02:40:07;;;;;;;;;;;;;;;19.78;63.90;99083.19;5079735;28;19992;-79
2021/08/26 02:42:33;;;;;;;;;;;;;;;19.69;64.42;99097.00;5046373;28;19924;-77
2021/08/26 02:44:59;;;;;;;;;;;;;;;19.71;64.27;99101.22;5062927;28;20458;-78
2021/08/26 02:47:25;;;;;;;;;;;;;;;19.79;64.12;99097.59;5043148;28;20066;-78
2021/08/26 02:49:51;;;;;;;;;;;;;;;19.82;63.99;99105.31;5042892;28;19924;-77
2021/08/26 02:52:16;;;;;;;;;;;;;;;19.76;64.13;99106.09;5059513;28;19923;-78
2021/08/26 02:54:42;;;;;;;;;;;;;;;19.82;64.23;99099.91;5058446;28;20387;-77
2021/08/26 02:57:08;;;;;;;;;;;;;;;19.83;64.01;99104.31;5059247;28;19930;-77
2021/08/26 02:59:34;;;;;;;;;;;;;;;19.89;63.76;99100.81;5042770;28;19923;-77
2021/08/26 03:01:59;;;;;;;;;;;;;;;19.86;64.11;99110.19;5042640;28;19932;-78
2021/08/26 03:04:25;;;;;;;;;;;;;;;19.97;63.54;99110.72;5043069;28;19923;-77
2021/08/26 03:06:51;;;;;;;;;;;;;;;19.92;63.65;99105.03;5094230;28;19959;-77
2021/08/26 03:09:17;;;;;;;;;;;;;;;19.95;63.87;99097.38;5076231;28;20298;-77
2021/08/26 03:11:42;;;;;;;;;;;;;;;19.97;63.90;99094.47;5042858;28;20043;-76
2021/08/26 03:14:08;;;;;;;;;;;;;;;19.99;63.64;99095.97;5062124;28;19923;-78
2021/08/26 03:16:34;;;;;;;;;;;;;;;20.14;63.31;99099.50;5086549;28;19923;-76
2021/08/26 03:18:59;;;;;;;;;;;;;;;20.26;62.80;99099.84;5093956;28;19986;-77
2021/08/26 03:21:25;;;;;;;;;;;;;;;20.29;62.66;99104.88;5059041;28;19924;-78
2021/08/26 03:23:51;;;;;;;;;;;;;;;20.41;62.38;99102.50;5059399;28;19924;-77
2021/08/26 03:26:16;;;;;;;;;;;;;;;20.43;62.37;99103.16;5047077;28;19924;-77
2021/08/26 03:28:42;;;;;;;;;;;;;;;20.42;62.54;99116.91;5093412;28;19924;-77
2021/08/26 03:31:08;;;;;;;;;;;;;;;20.45;62.33;99113.81;5095849;28;19923;-76
2021/08/26 03:33:34;;;;;;;;;;;;;;;20.52;62.36;99112.91;5062031;28;20019;-75
2021/08/26 03:36:00;;;;;;;;;;;;;;;20.49;62.60;99110.56;5095884;28;20511;-78
2021/08/26 03:38:26;;;;;;;;;;;;;;;20.68;61.75;99102.81;5095241;28;20391;-79
2021/08/26 03:40:52;;;;;;;;;;;;;;;20.76;61.72;99110.84;5096175;28;19935;-77
2021/08/26 03:43:18;;;;;;;;;;;;;;;20.83;61.31;99117.19;5095950;28;19924;-75
2021/08/26 03:45:43;;;;;;;;;;;;;;;20.89;61.48;99118.28;5113765;28;19924;-75
2021/08/26 03:48:09;;;;;;;;;;;;;;;20.89;61.36;99119.13;5045389;28;19931;-77
2021/08/26 03:50:35;;;;;;;;;;;;;;;20.99;61.28;99110.66;5078550;28;19949;-78
2021/08/26 03:53:01;;;;;;;;;;;;;;;21.03;61.00;99107.34;5062123;28;20310;-77
2021/08/26 03:55:27;;;;;;;;;;;;;;;21.04;61.02;99119.06;5079109;28;20029;-78
2021/08/26 03:57:52;;;;;;;;;;;;;;;21.14;60.68;99103.25;5095716;28;19931;-79
2021/08/26 04:00:18;;;;;;;;;;;;;;;21.26;60.21;99111.72;5062554;28;20267;-79
2021/08/26 04:02:44;;;;;;;;;;;;;;;21.37;60.19;99107.66;5061862;28;19965;-79
2021/08/26 04:05:10;;;;;;;;;;;;;;;21.41;59.90;99112.47;5114685;28;19931;-78
2021/08/26 04:07:36;;;;;;;;;;;;;;;21.42;59.69;99105.16;5099867;28;19924;-78
2021/08/26 04:10:01;;;;;;;;;;;;;;;21.49;59.52;99115.06;5083101;28;20386;-79
2021/08/26 04:12:27;;;;;;;;;;;;;;;21.60;59.20;99107.38;5099704;28;19976;-79
2021/08/26 04:14:53;;;;;;;;;;;;;;;21.65;59.27;99116.59;5097429;28;19924;-78
2021/08/26 04:17:19;;;;;;;;;;;;;;;21.57;59.68;99120.31;5063205;28;20283;-78
2021/08/26 04:19:46;;;;;;;;;;;;;;;21.57;59.94;99114.88;5115651;28;19938;-79
2021/08/26 04:22:12;;;;;;;;;;;;;;;21.81;59.06;99110.00;5115781;28;19931;-78
2021/08/26 04:24:38;;;;;;;;;;;;;;;21.77;59.31;99125.03;5063894;28;20343;-77
2021/08/26 04:27:04;;;;;;;;;;;;;;;21.82;58.94;99122.59;5115369;28;19927;-78
2021/08/26 04:29:30;;;;;;;;;;;;;;;21.77;59.16;99116.88;5064156;28;19928;-77
2021/08/26 04:31:55;;;;;;;;;;;;;;;21.92;58.68;99117.59;5117387;28;20039;-77
2021/08/26 04:34:21;;;;;;;;;;;;;;;21.95;58.79;99122.63;5099854;28;20394;-78
2021/08/26 04:36:47;;;;;;;;;;;;;;;22.12;58.29;99122.31;5082955;28;19924;-78
2021/08/26 04:39:13;;;;;;;;;;;;;;;22.15;58.04;99116.47;5082872;28;19963;-78
2021/08/26 04:41:38;;;;;;;;;;;;;;;22.17;57.98;99126.13;5082913;28;19924;-77
2021/08/26 04:44:05;;;;;;;;;;;;;;;22.00;58.52;99131.06;5099079;28;19928;-78
2021/08/26 04:46:31;;;;;;;;;;;;;;;22.15;58.17;99121.94;5117533;28;19939;-78
2021/08/26 04:48:57;;;;;;;;;;;;;;;22.38;57.44;99117.00;5065321;28;19930;-77
2021/08/26 04:51:23;;;;;;;;;;;;;;;22.48;57.02;99128.34;5116968;28;20424;-77
2021/08/26 04:53:49;;;;;;;;;;;;;;;22.54;56.92;99127.53;5081553;28;19967;-78
2021/08/26 04:56:15;;;;;;;;;;;;;;;22.60;56.79;99125.84;5065148;28;20279;-76
2021/08/26 04:58:40;;;;;;;;;;;;;;;22.53;56.99;99142.19;5098956;28;19931;-78
2021/08/26 05:01:06;;;;;;;;;;;;;;;22.49;56.93;99127.31;5116874;28;19948;-78
2021/08/26 05:03:32;;;;;;;;;;;;;;;22.64;56.69;99132.59;5081602;28;20377;-78
2021/08/26 05:05:58;;;;;;;;;;;;;;;22.58;56.56;99138.84;5064971;28;19924;-77
2021/08/26 05:08:24;;;;;;;;;;;;;;;22.47;57.13;99132.13;5116788;28;19931;-78
2021/08/26 05:10:50;;;;;;;;;;;;;;;22.71;56.56;99127.13;5065030;28;19930;-78
2021/08/26 05:13:16;;;;;;;;;;;;;;;22.99;55.60;99137.94;5098418;28;19924;-78
2021/08/26 05:15:42;;;;;;;;;;;;;;;23.17;55.04;99126.38;5064544;28;19924;-78
2021/08/26 05:18:08;;;;;;;;;;;;;;;23.24;55.00;99144.44;5115304;28;19924;-79
2021/08/26 05:20:40;;;;;;;;;;;;;;;23.25;55.04;99139.84;5099278;28;19928;-78
2021/08/26 05:23:06;;;;;;;;;;;;;;;23.17;55.04;99140.00;5097886;28;19931;-79
2021/08/26 05:25:33;;;;;;;;;;;;;;;23.29;54.91;99140.25;5082051;28;20260;-78
2021/08/26 05:27:59;;;;;;;;;;;;;;;23.35;54.69;99144.84;5098498;28;20382;-77
2021/08/26 05:30:24;;;;;;;;;;;;;;;23.55;54.54;99136.69;5116131;28;19949;-78
2021/08/26 05:32:50;;;;;;;;;;;;;;;23.66;54.19;99141.50;5097411;28;19923;-79
2021/08/26 05:35:16;;;;;;;;;;;;;;;23.86;53.81;99141.47;5096719;28;20022;-78
2021/08/26 05:37:42;;;;;;;;;;;;;;;23.99;53.15;99136.78;5080607;28;20247;-78
2021/08/26 05:40:08;;;;;;;;;;;;;;;24.05;53.14;99132.38;5116009;28;19923;-77
2021/08/26 05:42:34;;;;;;;;;;;;;;;24.06;52.80;99130.50;5063771;28;19923;-77
2021/08/26 05:45:01;;;;;;;;;;;;;;;24.09;52.76;99135.53;5097603;28;20018;-78
2021/08/26 05:47:26;;;;;;;;;;;;;;;24.04;53.01;99129.88;5097725;28;20026;-77
2021/08/26 05:49:52;;;;;;;;;;;;;;;24.38;52.63;99135.00;5097617;28;19923;-77
2021/08/26 05:52:18;;;;;;;;;;;;;;;24.40;51.48;99138.34;5080802;28;19923;-78
2021/08/26 05:54:44;;;;;;;;;;;;;;;24.31;51.66;99128.72;5080652;28;19924;-79
2021/08/26 05:57:10;;;;;;;;;;;;;;;24.34;51.81;99127.44;5047257;28;19955;-78
2021/08/26 05:59:35;;;;;;;;;;;;;;;24.30;51.87;99132.50;5097325;28;19994;-77
2021/08/26 06:02:01;;;;;;;;;;;;;;;24.30;51.98;99137.97;5096730;28;19984;-78
2021/08/26 06:04:27;;;;;;;;;;;;;;;24.23;52.56;99148.09;5080302;28;19974;-78
2021/08/26 06:06:53;;;;;;;;;;;;;;;24.46;51.76;99159.34;5097154;28;19930;-77
2021/08/26 06:09:19;;;;;;;;;;;;;;;24.57;50.87;99160.56;5063382;28;19928;-78
2021/08/26 06:11:45;;;;;;;;;;;;;;;24.46;51.44;99170.28;5063489;28;19924;-78
2021/08/26 06:14:10;;;;;;;;;;;;;;;24.44;51.60;99156.00;5097758;28;19977;-78
2021/08/26 06:16:37;;;;;;;;;;;;;;;24.72;50.54;99135.69;5115371;28;20018;-78
2021/08/26 06:19:03;;;;;;;;;;;;;;;24.95;50.52;99133.22;5063327;28;19924;-78
2021/08/26 06:21:28;;;;;;;;;;;;;;;25.25;49.65;99134.50;5080257;28;19978;-79
2021/08/26 06:23:54;;;;;;;;;;;;;;;25.28;49.44;99134.91;5063006;28;19927;-79
2021/08/26 06:26:20;;;;;;;;;;;;;;;25.51;48.96;99130.69;5063851;28;19959;-77
2021/08/26 06:28:46;;;;;;;;;;;;;;;25.41;48.82;99137.50;5097135;28;19924;-78
2021/08/26 06:31:13;;;;;;;;;;;;;;;25.49;48.55;99141.03;5079961;28;19928;-78
2021/08/26 06:33:39;;;;;;;;;;;;;;;25.30;49.17;99149.19;5080031;28;19924;-77
2021/08/26 06:36:05;;;;;;;;;;;;;;;25.25;49.40;99146.28;5092859;28;19924;-78
2021/08/26 06:38:31;;;;;;;;;;;;;;;25.17;49.46;99136.44;5075959;28;20002;-78
2021/08/26 06:40:57;;;;;;;;;;;;;;;25.46;48.77;99133.25;5076241;28;19941;-77
2021/08/26 06:43:22;;;;;;;;;;;;;;;25.65;48.43;99140.44;5093156;28;19924;-78
2021/08/26 06:45:48;;;;;;;;;;;;;;;25.92;47.81;99141.91;5076100;28;19924;-78
2021/08/26 06:48:14;;;;;;;;;;;;;;;25.47;48.21;99146.72;5059545;28;20255;-78
2021/08/26 06:50:40;;;;;;;;;;;;;;;25.71;48.00;99141.44;5075963;28;20292;-77
2021/08/26 06:53:05;;;;;;;;;;;;;;;25.97;47.40;99145.84;5075788;28;19975;-77
2021/08/26 06:55:31;;;;;;;;;;;;;;;26.16;46.83;99142.03;5092905;28;19924;-78
2021/08/26 06:57:58;;;;;;;;;;;;;;;26.25;46.71;99135.19;5042796;28;20315;-78
2021/08/26 07:00:23;;;;;;;;;;;;;;;26.53;46.14;99144.78;5059105;28;20444;-78
2021/08/26 07:02:51;;;;;;;;;;;;;;;26.60;45.54;99137.31;5075647;28;19936;-78
2021/08/26 07:05:16;;;;;;;;;;;;;;;26.82;45.04;99130.25;5093814;28;19931;-78
2021/08/26 07:07:42;;;;;;;;;;;;;;;26.92;44.67;99145.28;5075893;28;19928;-77
2021/08/26 07:10:08;;;;;;;;;;;;;;;26.73;44.65;99148.09;5076156;28;19924;-77
2021/08/26 07:12:34;;;;;;;;;;;;;;;26.69;44.84;99133.16;5092782;28;19947;-78
2021/08/26 07:15:00;;;;;;;;;;;;;;;26.92;44.41;99135.16;5092365;28;20302;-78
2021/08/26 07:17:26;;;;;;;;;;;;;;;26.99;44.37;99135.06;5092490;28;20069;-78
2021/08/26 07:19:51;;;;;;;;;;;;;;;27.04;44.17;99132.44;5075637;28;19924;-78
2021/08/26 07:22:18;;;;;;;;;;;;;;;27.04;44.12;99127.81;5075606;28;19931;-78
2021/08/26 07:24:44;;;;;;;;;;;;;;;27.35;43.99;99121.19;5076114;28;19924;-77
2021/08/26 07:27:10;;;;;;;;;;;;;;;27.62;43.48;99115.25;5075900;28;19981;-78
2021/08/26 07:29:36;;;;;;;;;;;;;;;27.70;42.66;99120.38;5092319;28;19931;-77
2021/08/26 07:32:02;;;;;;;;;;;;;;;27.91;42.46;99126.34;5075282;28;19963;-77
2021/08/26 07:34:28;;;;;;;;;;;;;;;27.82;42.41;99129.47;5075561;28;19963;-78
2021/08/26 07:36:54;;;;;;;;;;;;;;;27.77;42.50;99125.78;5058479;28;19935;-78
2021/08/26 07:39:20;;;;;;;;;;;;;;;27.90;42.19;99125.50;5074728;28;20035;-81
2021/08/26 07:41:45;;;;;;;;;;;;;;;28.13;42.36;99124.63;5058488;28;19924;-77
2021/08/26 07:44:11;;;;;;;;;;;;;;;28.14;41.54;99126.31;5075564;28;19924;-77
2021/08/26 07:46:37;;;;;;;;;;;;;;;28.07;41.81;99120.13;5093225;28;20336;-78
2021/08/26 07:49:02;;;;;;;;;;;;;;;28.27;41.46;99120.53;5075188;28;19924;-77
2021/08/26 07:51:28;;;;;;;;;;;;;;;28.39;41.75;99130.69;5058413;28;19924;-78
2021/08/26 07:53:54;;;;;;;;;;;;;;;28.55;41.18;99121.69;5091806;28;19989;-78
2021/08/26 07:56:20;;;;;;;;;;;;;;;28.72;40.97;99127.22;5058472;28;20000;-78
2021/08/26 07:58:46;;;;;;;;;;;;;;;28.49;41.00;99141.91;5075298;28;19924;-78
2021/08/26 08:01:11;;;;;;;;;;;;;;;28.46;41.51;99134.13;5092918;28;20372;-78
2021/08/26 08:03:38;;;;;;;;;;;;;;;28.38;41.52;99137.28;5058081;28;19984;-77
2021/08/26 08:06:05;;;;;;;;;;;;;;;28.46;41.41;99142.38;5075103;28;19924;-77
2021/08/26 08:08:31;;;;;;;;;;;;;;;28.29;41.76;99140.38;5091665;28;20026;-78
2021/08/26 08:10:57;;;;;;;;;;;;;;;28.20;42.02;99128.09;5075428;28;20006;-78
2021/08/26 08:13:23;;;;;;;;;;;;;;;28.52;41.45;99138.66;5093162;28;20088;-78
2021/08/26 08:15:49;;;;;;;;;;;;;;;28.60;41.26;99146.53;5076255;28;19955;-78
2021/08/26 08:18:15;;;;;;;;;;;;;;;28.38;41.38;99151.84;5094300;28;19970;-79
2021/08/26 08:20:40;;;;;;;;;;;;;;;28.37;41.68;99149.34;5076477;28;19971;-78
2021/08/26 08:23:06;;;;;;;;;;;;;;;28.59;41.20;99144.88;5059307;28;19934;-77
2021/08/26 08:25:32;;;;;;;;;;;;;;;28.84;41.17;99147.25;5075881;28;19924;-78
2021/08/26 08:27:58;;;;;;;;;;;;;;;29.04;40.47;99146.84;5093169;28;19930;-78
2021/08/26 08:30:27;;;;;;;;;;;;;;;29.28;39.55;99142.84;5059748;28;19924;-79
2021/08/26 08:32:54;;;;;;;;;;;;;;;29.00;40.30;99145.66;5092254;28;19931;-77
2021/08/26 08:35:22;;;;;;;;;;;;;;;29.01;40.48;99152.84;5058096;28;19924;-78
2021/08/26 08:37:49;;;;;;;;;;;;;;;29.08;39.96;99148.00;5057852;28;19928;-77
2021/08/26 08:40:14;;;;;;;;;;;;;;;29.37;39.13;99147.94;5058514;28;19947;-77
2021/08/26 08:42:40;;;;;;;;;;;;;;;29.59;38.62;99148.88;5074662;28;19924;-78
2021/08/26 08:45:06;;;;;;;;;;;;;;;29.45;39.28;99142.00;5058098;28;20382;-78
2021/08/26 08:47:33;;;;;;;;;;;;;;;29.41;38.81;99152.72;5074591;28;19947;-78
2021/08/26 08:50:02;;;;;;;;;;;;;;;29.82;38.49;99138.75;5074973;28;20002;-77
2021/08/26 08:52:28;;;;;;;;;;;;;;;29.84;38.37;99133.84;5077780;28;19953;-78
2021/08/26 08:54:54;;;;;;;;;;;;;;;29.77;38.05;99145.84;5078573;28;19928;-77
2021/08/26 08:57:20;;;;;;;;;;;;;;;29.93;37.89;99143.31;5096339;28;19928;-78
2021/08/26 08:59:46;;;;;;;;;;;;;;;29.89;37.93;99131.13;5078450;28;19924;-76
2021/08/26 09:02:11;;;;;;;;;;;;;;;29.88;38.01;99135.81;5078482;28;19930;-80
2021/08/26 09:04:55;;;;;;;;;;;;;;;29.86;37.92;99126.13;5095626;28;19928;-77
2021/08/26 09:07:30;;;;;;;;;;;;;;;29.63;38.55;99139.03;5078655;28;19970;-78
2021/08/26 09:09:56;;;;;;;;;;;;;;;29.62;38.36;99131.84;5078340;28;19927;-77
2021/08/26 09:12:40;;;;;;;;;;;;;;;30.08;38.07;99135.25;5078215;28;20022;-78
2021/08/26 09:15:30;;;;;;;;;;;;;;;30.52;37.21;99126.19;5078327;28;19928;-79
2021/08/26 09:18:12;;;;;;;;;;;;;;;30.33;37.16;99132.03;5094908;28;19931;-78
2021/08/26 09:20:47;;;;;;;;;;;;;;;30.73;36.32;99125.34;5078585;28;19949;-78
2021/08/26 09:23:13;;;;;;;;;;;;;;;30.30;37.21;99148.25;5094837;28;19923;-78
2021/08/26 09:25:40;;;;;;;;;;;;;;;30.56;36.61;99136.44;5077927;28;19938;-78
2021/08/26 09:28:06;;;;;;;;;;;;;;;30.49;36.51;99133.88;5077616;28;19928;-78
2021/08/26 09:30:32;;;;;;;;;;;;;;;30.71;36.90;99124.75;5061232;28;20006;-78
2021/08/26 09:32:59;;;;;;;;;;;;;;;31.01;35.97;99145.50;5060760;28;20033;-79
2021/08/26 09:35:26;;;;;;;;;;;;;;;30.78;36.06;99122.66;5057688;28;20027;-77
2021/08/26 09:37:56;;;;;;;;;;;;;;;31.23;35.15;99145.44;5057195;28;19928;-78
2021/08/26 09:40:23;;;;;;;;;;;;;;;31.07;35.42;99127.88;5074102;28;19931;-78
2021/08/26 09:42:59;;;;;;;;;;;;;;;31.04;35.69;99132.03;5091729;28;19947;-78
2021/08/26 09:45:26;;;;;;;;;;;;;;;31.29;35.11;99119.50;5057625;28;20391;-77
2021/08/26 09:47:59;;;;;;;;;;;;;;;31.28;34.83;99120.63;5091067;28;19931;-77
2021/08/26 09:50:35;;;;;;;;;;;;;;;31.57;34.81;99126.69;5074070;28;19924;-78
2021/08/26 09:53:01;;;;;;;;;;;;;;;31.44;34.56;99125.19;5057059;28;20043;-78
2021/08/26 09:55:47;;;;;;;;;;;;;;;31.66;33.99;99123.13;5073751;28;19959;-78
2021/08/26 09:58:13;;;;;;;;;;;;;;;31.83;34.10;99116.63;5074108;28;19925;-78
2021/08/26 10:00:39;;;;;;;;;;;;;;;32.05;33.47;99119.28;5090281;28;19967;-78
2021/08/26 10:03:09;;;;;;;;;;;;;;;31.80;33.04;99119.94;5072971;28;19960;-78
2021/08/26 10:05:36;;;;;;;;;;;;;;;32.23;32.82;99126.25;5056994;28;19924;-79
2021/08/26 10:08:02;;;;;;;;;;;;;;;32.45;32.19;99110.31;5074057;28;19973;-78
2021/08/26 10:10:27;;;;;;;;;;;;;;;32.27;32.45;99121.84;5073858;28;19924;-78
2021/08/26 10:12:53;;;;;;;;;;;;;;;32.51;32.16;99111.19;5040369;28;20260;-79
2021/08/26 10:15:19;;;;;;;;;;;;;;;32.75;31.28;99108.75;5057045;28;19931;-77
2021/08/26 10:17:45;;;;;;;;;;;;;;;33.00;31.28;99119.91;5057330;28;20252;-78
2021/08/26 10:20:11;;;;;;;;;;;;;;;33.63;29.91;99107.69;5089983;28;20027;-78
2021/08/26 10:22:37;;;;;;;;;;;;;;;33.49;30.38;99108.28;5056520;28;19924;-78
2021/08/26 10:25:03;;;;;;;;;;;;;;;33.23;30.13;99110.22;5039972;28;19924;-78
2021/08/26 10:27:29;;;;;;;;;;;;;;;33.51;30.18;99113.53;5090186;28;19939;-79
2021/08/26 10:29:55;;;;;;;;;;;;;;;33.29;30.52;99122.97;5040272;28;19964;-77
2021/08/26 10:32:24;;;;;;;;;;;;;;;33.79;29.49;99117.66;5040895;28;19924;-77
2021/08/26 10:35:03;;;;;;;;;;;;;;;33.93;29.63;99115.97;5091803;28;20322;-78
2021/08/26 10:37:30;;;;;;;;;;;;;;;33.81;29.36;99112.66;5114783;28;19932;-77
2021/08/26 10:39:56;;;;;;;;;;;;;;;33.96;29.38;99098.75;5063057;28;19931;-78
2021/08/26 10:42:22;;;;;;;;;;;;;;;33.78;29.45;99116.03;5114629;28;19989;-77
2021/08/26 10:44:59;;;;;;;;;;;;;;;34.02;28.97;99113.47;5079507;28;20034;-78
2021/08/26 10:47:45;;;;;;;;;;;;;;;34.39;28.27;99104.72;5046640;28;20003;-78
2021/08/26 10:50:15;;;;;;;;;;;;;;;34.49;28.52;99101.94;5114645;28;19924;-78
2021/08/26 10:53:08;;;;;;;;;;;;;;;35.04;27.69;99086.03;5079762;28;20396;-77
2021/08/26 10:55:40;;;;;;;;;;;;;;;34.87;27.66;99101.41;5060362;28;20018;-78
2021/08/26 10:58:18;;;;;;;;;;;;;;;34.98;27.30;99100.22;5079205;28;19923;-78
2021/08/26 11:00:44;;;;;;;;;;;;;;;35.43;26.74;99104.63;5096048;28;19931;-77
2021/08/26 11:03:10;;;;;;;;;;;;;;;35.90;26.14;99107.78;5062524;28;19931;-78
2021/08/26 11:05:36;;;;;;;;;;;;;;;35.69;26.31;99107.97;5079093;28;19924;-78
2021/08/26 11:08:22;;;;;;;;;;;;;;;35.89;25.78;99106.97;5046183;28;19927;-78
2021/08/26 11:10:48;;;;;;;;;;;;;;;35.68;26.25;99099.94;5072149;28;19930;-78
2021/08/26 11:13:32;;;;;;;;;;;;;;;35.73;26.13;99100.75;5062814;28;19923;-77
2021/08/26 11:16:17;;;;;;;;;;;;;;;36.19;25.96;99110.53;5095752;28;19923;-79
2021/08/26 11:18:42;;;;;;;;;;;;;;;36.44;25.20;99107.41;5079382;28;20038;-77
2021/08/26 11:21:08;;;;;;;;;;;;;;;36.25;25.45;99109.34;5079507;28;20421;-79
2021/08/26 11:23:46;;;;;;;;;;;;;;;36.61;24.97;99106.94;5046474;28;19923;-79
2021/08/26 11:26:31;;;;;;;;;;;;;;;36.47;24.88;99106.84;5079297;28;19988;-77
2021/08/26 11:29:16;;;;;;;;;;;;;;;36.28;24.99;99097.59;5114049;28;19923;-78
2021/08/26 11:31:41;;;;;;;;;;;;;;;35.97;25.43;99097.97;5062014;28;20328;-78
2021/08/26 11:34:07;;;;;;;;;;;;;;;35.92;25.67;99097.16;5079076;28;19925;-76
2021/08/26 11:36:33;;;;;;;;;;;;;;;36.43;25.47;99116.91;5092144;28;19959;-78
2021/08/26 11:38:59;;;;;;;;;;;;;;;36.41;25.16;99096.88;5058626;28;19928;-77
2021/08/26 11:41:25;;;;;;;;;;;;;;;36.23;25.56;99097.69;5075619;28;20341;-78
2021/08/26 11:43:50;;;;;;;;;;;;;;;35.82;25.62;99100.91;5058154;28;19924;-78
2021/08/26 11:46:16;;;;;;;;;;;;;;;36.38;25.11;99103.06;5075089;28;19923;-79
2021/08/26 11:48:49;;;;;;;;;;;;;;;36.30;24.90;99100.94;5058525;28;19924;-77
2021/08/26 11:51:22;;;;;;;;;;;;;;;36.40;24.88;99106.34;5058284;28;19924;-78
2021/08/26 11:53:48;;;;;;;;;;;;;;;36.78;24.60;99100.00;5075757;28;19924;-77
2021/08/26 11:56:14;;;;;;;;;;;;;;;36.57;24.51;99100.31;5075121;28;19936;-76
2021/08/26 11:58:40;;;;;;;;;;;;;;;36.82;24.50;99101.06;5075164;28;19928;-78
2021/08/26 12:01:07;;;;;;;;;;;;;;;36.36;24.94;99102.50;5091694;28;20014;-77
2021/08/26 12:03:33;;;;;;;;;;;;;;;37.07;24.57;99097.09;5075138;28;19932;-77
2021/08/26 12:06:07;;;;;;;;;;;;;;;37.28;24.08;99103.16;5075024;28;20297;-78
2021/08/26 12:08:33;;;;;;;;;;;;;;;37.43;23.61;99092.59;5093120;28;19978;-79
2021/08/26 12:10:58;;;;;;;;;;;;;;;37.74;23.39;99100.41;5074850;28;19931;-80
2021/08/26 12:13:27;;;;;;;;;;;;;;;38.24;23.18;99085.75;5075007;28;19924;-76
2021/08/26 12:15:55;;;;;;;;;;;;;;;37.59;22.95;99103.47;5074957;28;19947;-78
2021/08/26 12:18:25;;;;;;;;;;;;;;;37.45;23.52;99091.47;5091199;28;19931;-76
2021/08/26 12:20:53;;;;;;;;;;;;;;;37.82;23.03;99084.91;5092833;28;20015;-77
2021/08/26 12:23:19;;;;;;;;;;;;;;;37.85;23.07;99090.69;5075285;28;20409;-78
2021/08/26 12:25:49;;;;;;;;;;;;;;;37.84;23.29;99089.06;5075646;28;19970;-77
2021/08/26 12:28:15;;;;;;;;;;;;;;;38.37;22.66;99085.78;5062147;28;19924;-78
2021/08/26 12:30:41;;;;;;;;;;;;;;;38.20;22.73;99099.50;5078522;28;20306;-77
2021/08/26 12:33:10;;;;;;;;;;;;;;;38.33;22.79;99084.72;5078470;28;19928;-79
2021/08/26 12:35:46;;;;;;;;;;;;;;;38.15;22.82;99083.69;5095260;28;20368;-77
2021/08/26 12:38:13;;;;;;;;;;;;;;;37.65;23.67;99094.72;5061561;28;20267;-75
2021/08/26 12:40:52;;;;;;;;;;;;;;;37.70;23.19;99101.31;5095380;28;19939;-78
2021/08/26 12:43:18;;;;;;;;;;;;;;;37.80;23.43;99093.59;5061622;28;19947;-78
2021/08/26 12:45:44;;;;;;;;;;;;;;;37.46;23.78;99099.50;5095833;28;20302;-78
2021/08/26 12:48:25;;;;;;;;;;;;;;;37.78;23.60;99097.81;5095669;28;19939;-77
2021/08/26 12:51:10;;;;;;;;;;;;;;;37.74;23.84;99094.81;5077881;28;20314;-77